createdAt,value
2018-12-19T00:00:53.277Z,101723.41
2018-12-19T00:03:21.545Z,101721.96
2018-12-19T00:05:49.491Z,101722.80
2018-12-19T00:08:17.353Z,101722.16
2018-12-19T00:10:45.419Z,101719.09
2018-12-19T00:13:15.335Z,101711.84
2018-12-19T00:15:43.208Z,101710.84
2018-12-19T00:18:11.065Z,101713.73
2018-12-19T00:20:39.256Z,101714.40
2018-12-19T00:23:07.197Z,101709.52
2018-12-19T00:25:35.062Z,101700.78
2018-12-19T00:28:02.928Z,101703.25
2018-12-19T00:30:30.919Z,101703.00
2018-12-19T00:32:59.023Z,101700.95
2018-12-19T00:35:27.094Z,101707.69
2018-12-19T00:37:55.140Z,101701.84
2018-12-19T00:40:23.080Z,101701.69
2018-12-19T00:42:51.071Z,101690.69
2018-12-19T00:45:19.037Z,101689.75
2018-12-19T00:47:47.245Z,101689.44
2018-12-19T00:50:15.111Z,101693.52
2018-12-19T00:52:43.084Z,101698.77
2018-12-19T00:55:11.027Z,101700.20
2018-12-19T00:57:38.966Z,101693.48
2018-12-19T01:00:08.481Z,101693.30
2018-12-19T01:02:36.350Z,101681.25
2018-12-19T01:05:05.316Z,101677.91
2018-12-19T01:07:33.454Z,101677.91
2018-12-19T01:10:01.497Z,101673.25
2018-12-19T01:12:29.597Z,101676.27
2018-12-19T01:14:57.650Z,101671.06
2018-12-19T01:17:25.591Z,101674.41
2018-12-19T01:19:53.583Z,101672.36
2018-12-19T01:22:21.677Z,101670.92
2018-12-19T01:24:49.388Z,101655.34
2018-12-19T01:27:17.413Z,101657.63
2018-12-19T01:29:45.471Z,101657.30
2018-12-19T01:32:13.410Z,101659.90
2018-12-19T01:34:41.275Z,101663.05
2018-12-19T01:37:09.145Z,101673.52
2018-12-19T01:39:37.007Z,101675.80
2018-12-19T01:42:04.872Z,101673.10
2018-12-19T01:44:32.885Z,101678.17
2018-12-19T01:47:00.929Z,101679.48
2018-12-19T01:49:29.027Z,101679.05
2018-12-19T01:51:57.083Z,101685.14
2018-12-19T01:54:25.025Z,101682.70
2018-12-19T01:56:53.036Z,101678.36
2018-12-19T01:59:21.033Z,101671.30
2018-12-19T02:01:48.970Z,101667.16
2018-12-19T02:04:16.888Z,101672.45
2018-12-19T02:06:44.754Z,101661.13
2018-12-19T02:09:12.623Z,101654.70
2018-12-19T02:11:40.510Z,101653.12
2018-12-19T02:14:08.476Z,101654.83
2018-12-19T02:16:36.443Z,101647.41
2018-12-19T02:19:04.412Z,101647.50
2018-12-19T02:21:32.498Z,101639.70
2018-12-19T02:24:00.563Z,101647.17
2018-12-19T02:26:28.663Z,101640.63
2018-12-19T02:28:56.593Z,101636.81
2018-12-19T02:31:24.604Z,101640.98
2018-12-19T02:33:52.671Z,101635.14
2018-12-19T02:36:20.740Z,101635.05
2018-12-19T02:38:48.656Z,101632.57
2018-12-19T02:41:16.684Z,101638.09
2018-12-19T02:43:44.736Z,101635.40
2018-12-19T02:46:12.678Z,101629.13
2018-12-19T02:48:40.872Z,101631.09
2018-12-19T02:51:08.810Z,101617.52
2018-12-19T02:53:36.799Z,101614.08
2018-12-19T02:56:04.903Z,101607.56
2018-12-19T02:58:32.975Z,101612.95
2018-12-19T03:01:01.031Z,101613.70
2018-12-19T03:03:28.964Z,101611.83
2018-12-19T03:05:56.775Z,101608.88
2018-12-19T03:08:24.945Z,101612.45
2018-12-19T03:10:52.887Z,101611.00
2018-12-19T03:13:20.846Z,101609.75
2018-12-19T03:15:48.717Z,101605.52
2018-12-19T03:18:16.582Z,101607.79
2018-12-19T03:20:44.571Z,101601.56
2018-12-19T03:23:12.511Z,101601.20
2018-12-19T03:25:40.530Z,101602.69
2018-12-19T03:28:08.571Z,101595.81
2018-12-19T03:30:36.878Z,101598.28
2018-12-19T03:33:04.926Z,101601.81
2018-12-19T03:35:33.019Z,101595.49
2018-12-19T03:38:01.106Z,101588.97
2018-12-19T03:40:29.322Z,101584.48
2018-12-19T03:42:57.287Z,101576.48
2018-12-19T03:45:25.178Z,101578.25
2018-12-19T03:47:53.343Z,101578.55
2018-12-19T03:50:21.309Z,101577.13
2018-12-19T03:52:49.175Z,101578.77
2018-12-19T03:55:17.044Z,101582.42
2018-12-19T03:57:44.961Z,101569.05
2018-12-19T04:00:12.899Z,101562.20
2018-12-19T04:02:40.912Z,101569.27
2018-12-19T04:05:08.830Z,101562.69
2018-12-19T04:07:36.768Z,101564.48
2018-12-19T04:10:05.686Z,101554.22
2018-12-19T04:12:33.527Z,101545.16
2018-12-19T04:15:01.519Z,101541.67
2018-12-19T04:17:29.458Z,101527.48
2018-12-19T04:19:57.398Z,101527.67
2018-12-19T04:22:25.414Z,101520.73
2018-12-19T04:24:53.279Z,101517.72
2018-12-19T04:27:21.144Z,101511.20
2018-12-19T04:29:49.359Z,101510.78
2018-12-19T04:32:17.636Z,101508.19
2018-12-19T04:34:45.366Z,101497.30
2018-12-19T04:37:13.354Z,101492.53
2018-12-19T04:39:41.299Z,101483.84
2018-12-19T04:42:09.164Z,101482.98
2018-12-19T04:44:37.034Z,101469.75
2018-12-19T04:47:04.896Z,101466.63
2018-12-19T04:49:32.906Z,101464.03
2018-12-19T04:52:00.651Z,101461.05
2018-12-19T04:54:28.615Z,101464.03
2018-12-19T04:56:56.710Z,101469.95
2018-12-19T04:59:24.677Z,101461.88
2018-12-19T05:01:52.716Z,101454.09
2018-12-19T05:04:20.778Z,101454.30
2018-12-19T05:06:48.791Z,101449.63
2018-12-19T05:09:17.559Z,101456.70
2018-12-19T05:11:45.577Z,101454.30
2018-12-19T05:14:13.819Z,101451.08
2018-12-19T05:16:41.956Z,101450.25
2018-12-19T05:19:10.546Z,101445.17
2018-12-19T05:21:38.514Z,101456.28
2018-12-19T05:24:06.604Z,101452.55
2018-12-19T05:26:34.718Z,101446.09
2018-12-19T05:29:03.532Z,101450.66
2018-12-19T05:31:31.448Z,101445.66
2018-12-19T05:33:59.489Z,101450.14
2018-12-19T05:36:27.455Z,101451.06
2018-12-19T05:38:56.072Z,101455.11
2018-12-19T05:41:24.042Z,101459.55
2018-12-19T05:43:51.952Z,101464.87
2018-12-19T05:46:19.817Z,101454.91
2018-12-19T05:48:47.845Z,101453.96
2018-12-19T05:51:15.900Z,101442.12
2018-12-19T05:53:43.840Z,101438.39
2018-12-19T05:56:11.854Z,101441.61
2018-12-19T05:58:39.770Z,101431.45
2018-12-19T06:01:07.883Z,101434.74
2018-12-19T06:03:36.063Z,101439.82
2018-12-19T06:06:04.236Z,101436.36
2018-12-19T06:08:32.210Z,101444.78
2018-12-19T06:10:59.954Z,101437.70
2018-12-19T06:13:28.236Z,101422.78
2018-12-19T06:15:56.321Z,101430.35
2018-12-19T06:18:24.370Z,101432.22
2018-12-19T06:20:52.464Z,101424.76
2018-12-19T06:23:20.476Z,101429.28
2018-12-19T06:25:48.349Z,101425.05
2018-12-19T06:28:16.331Z,101423.54
2018-12-19T06:30:44.198Z,101422.78
2018-12-19T06:33:12.063Z,101422.19
2018-12-19T06:35:39.928Z,101428.90
2018-12-19T06:38:07.923Z,101435.37
2018-12-19T06:40:35.859Z,101441.05
2018-12-19T06:43:03.850Z,101435.65
2018-12-19T06:45:31.791Z,101436.80
2018-12-19T06:47:59.681Z,101431.92
2018-12-19T06:50:27.654Z,101435.77
2018-12-19T06:52:55.937Z,101436.72
2018-12-19T06:55:24.604Z,101431.84
2018-12-19T06:57:52.695Z,101423.43
2018-12-19T07:00:20.637Z,101420.41
2018-12-19T07:02:48.654Z,101410.17
2018-12-19T07:05:16.690Z,101412.55
2018-12-19T07:07:44.659Z,101416.48
2018-12-19T07:10:12.646Z,101423.41
2018-12-19T07:12:40.735Z,101427.98
2018-12-19T07:15:08.802Z,101430.16
2018-12-19T07:17:36.669Z,101424.12
2018-12-19T07:20:05.150Z,101420.70
2018-12-19T07:22:33.074Z,101422.66
2018-12-19T07:25:00.942Z,101417.17
2018-12-19T07:27:29.306Z,101417.50
2018-12-19T07:29:57.232Z,101423.48
2018-12-19T07:32:25.238Z,101418.41
2018-12-19T07:34:53.229Z,101408.44
2018-12-19T07:37:21.445Z,101411.34
2018-12-19T07:39:49.516Z,101411.22
2018-12-19T07:42:17.573Z,101402.33
2018-12-19T07:44:45.659Z,101400.84
2018-12-19T07:47:13.655Z,101406.38
2018-12-19T07:49:41.600Z,101414.76
2018-12-19T07:52:09.511Z,101402.72
2018-12-19T07:54:37.601Z,101409.27
2018-12-19T07:57:05.494Z,101403.42
2018-12-19T07:59:33.383Z,101412.16
2018-12-19T08:02:01.325Z,101417.89
2018-12-19T08:04:29.823Z,101414.86
2018-12-19T08:06:57.655Z,101405.48
2018-12-19T08:09:25.596Z,101409.77
2018-12-19T08:11:53.535Z,101405.81
2018-12-19T08:14:21.476Z,101401.75
2018-12-19T08:16:49.417Z,101399.83
2018-12-19T08:19:17.427Z,101400.90
2018-12-19T08:21:45.500Z,101402.27
2018-12-19T08:24:13.413Z,101394.91
2018-12-19T08:26:41.279Z,101398.61
2018-12-19T08:29:09.144Z,101403.77
2018-12-19T08:31:37.012Z,101396.31
2018-12-19T08:34:04.876Z,101400.21
2018-12-19T08:36:32.902Z,101403.14
2018-12-19T08:39:00.631Z,101397.34
2018-12-19T08:41:28.498Z,101392.44
2018-12-19T08:43:56.364Z,101399.75
2018-12-19T08:46:24.229Z,101414.89
2018-12-19T08:48:52.235Z,101410.19
2018-12-19T08:51:20.306Z,101413.33
2018-12-19T08:53:48.374Z,101402.83
2018-12-19T08:56:16.317Z,101408.23
2018-12-19T08:58:44.281Z,101408.34
2018-12-19T09:01:12.249Z,101412.97
2018-12-19T09:03:40.238Z,101416.63
2018-12-19T09:06:08.431Z,101415.69
2018-12-19T09:08:36.393Z,101408.16
2018-12-19T09:11:05.877Z,101398.75
2018-12-19T09:13:34.353Z,101391.50
2018-12-19T09:16:02.554Z,101390.78
2018-12-19T09:18:30.419Z,101383.53
2018-12-19T09:20:59.199Z,101387.81
2018-12-19T09:23:27.138Z,101385.80
2018-12-19T09:25:55.128Z,101376.55
2018-12-19T09:28:23.070Z,101369.23
2018-12-19T09:30:51.090Z,101350.59
2018-12-19T09:33:19.125Z,101369.03
2018-12-19T09:35:47.065Z,101372.84
2018-12-19T09:38:14.930Z,101370.77
2018-12-19T09:40:42.821Z,101360.43
2018-12-19T09:43:10.687Z,101349.69
2018-12-19T09:45:38.555Z,101340.36
2018-12-19T09:48:07.018Z,101344.06
2018-12-19T09:50:34.884Z,101333.56
2018-12-19T09:53:02.874Z,101340.48
2018-12-19T09:55:30.841Z,101340.28
2018-12-19T09:57:58.905Z,101333.02
2018-12-19T10:00:28.247Z,101332.80
2018-12-19T10:02:56.430Z,101345.97
2018-12-19T10:05:24.900Z,101364.62
2018-12-19T10:07:52.942Z,101374.62
2018-12-19T10:10:21.031Z,101363.64
2018-12-19T10:12:48.974Z,101365.30
2018-12-19T10:15:16.839Z,101365.47
2018-12-19T10:17:44.707Z,101353.61
2018-12-19T10:20:12.572Z,101355.02
2018-12-19T10:22:40.436Z,101354.43
2018-12-19T10:25:13.868Z,101345.42
2018-12-19T10:27:42.017Z,101346.22
2018-12-19T10:30:11.933Z,101350.95
2018-12-19T10:32:40.851Z,101341.80
2018-12-19T10:35:10.051Z,101327.69
2018-12-19T10:37:37.881Z,101320.55
2018-12-19T10:40:08.291Z,101316.80
2018-12-19T10:42:36.186Z,101314.00
2018-12-19T10:45:05.977Z,101317.91
2018-12-19T10:47:33.966Z,101312.89
2018-12-19T10:50:02.133Z,101309.44
2018-12-19T10:52:30.120Z,101302.37
2018-12-19T10:54:58.063Z,101297.91
2018-12-19T10:57:25.928Z,101293.12
2018-12-19T10:59:53.794Z,101296.43
2018-12-19T11:02:21.985Z,101298.53
2018-12-19T11:04:50.084Z,101286.55
2018-12-19T11:07:18.068Z,101292.87
2018-12-19T11:09:45.957Z,101292.67
2018-12-19T11:12:14.101Z,101290.84
2018-12-19T11:14:42.339Z,101284.31
2018-12-19T11:17:10.850Z,101279.47
2018-12-19T11:19:38.695Z,101281.73
2018-12-19T11:22:08.685Z,101281.97
2018-12-19T11:24:36.649Z,101263.91
2018-12-19T11:27:04.616Z,101275.95
2018-12-19T11:29:32.831Z,101274.14
2018-12-19T11:32:00.914Z,101270.24
2018-12-19T11:34:30.083Z,101270.16
2018-12-19T11:36:57.978Z,101273.84
2018-12-19T11:39:25.869Z,101264.19
2018-12-19T11:41:53.784Z,101259.75
2018-12-19T11:44:21.885Z,101254.69
2018-12-19T11:46:49.939Z,101251.32
2018-12-19T11:49:18.081Z,101260.86
2018-12-19T11:51:46.099Z,101257.92
2018-12-19T11:54:14.056Z,101269.77
2018-12-19T11:56:41.954Z,101260.16
2018-12-19T11:59:09.868Z,101259.47
2018-12-19T12:01:41.296Z,101255.98
2018-12-19T12:04:07.951Z,101258.94
2018-12-19T12:06:36.164Z,101256.09
2018-12-19T12:09:07.084Z,101253.39
2018-12-19T12:11:35.125Z,101245.04
2018-12-19T12:14:03.088Z,101252.78
2018-12-19T12:16:30.953Z,101248.23
2018-12-19T12:18:58.944Z,101231.62
2018-12-19T12:21:26.909Z,101224.38
2018-12-19T12:23:54.775Z,101226.42
2018-12-19T12:26:22.641Z,101213.83
2018-12-19T12:28:50.509Z,101218.09
2018-12-19T12:31:18.370Z,101211.59
2018-12-19T12:33:46.237Z,101206.47
2018-12-19T12:36:14.248Z,101205.66
2018-12-19T12:38:42.219Z,101210.97
2018-12-19T12:41:10.160Z,101207.91
2018-12-19T12:43:38.052Z,101206.73
2018-12-19T12:46:06.315Z,101205.31
2018-12-19T12:48:34.401Z,101197.16
2018-12-19T12:51:02.327Z,101196.59
2018-12-19T12:53:30.189Z,101186.25
2018-12-19T12:55:58.409Z,101184.94
2018-12-19T12:58:29.944Z,101188.78
2018-12-19T13:00:58.040Z,101187.60
2018-12-19T13:03:26.076Z,101187.60
2018-12-19T13:05:54.382Z,101182.35
2018-12-19T13:08:22.452Z,101186.44
2018-12-19T13:10:50.522Z,101187.98
2018-12-19T13:13:18.941Z,101184.19
2018-12-19T13:15:47.361Z,101189.03
2018-12-19T13:18:15.318Z,101193.32
2018-12-19T13:20:43.284Z,101194.58
2018-12-19T13:23:11.150Z,101193.27
2018-12-19T13:25:39.146Z,101192.22
2018-12-19T13:28:07.406Z,101175.87
2018-12-19T13:30:35.502Z,101192.16
2018-12-19T13:33:03.565Z,101185.20
2018-12-19T13:35:31.503Z,101181.44
2018-12-19T13:37:59.368Z,101197.95
2018-12-19T13:40:27.235Z,101193.42
2018-12-19T13:42:55.100Z,101195.00
2018-12-19T13:45:22.966Z,101197.19
2018-12-19T13:47:51.156Z,101195.48
2018-12-19T13:50:19.273Z,101197.26
2018-12-19T13:52:47.163Z,101201.77
2018-12-19T13:55:15.028Z,101201.95
2018-12-19T13:57:42.970Z,101205.95
2018-12-19T14:00:11.334Z,101202.70
2018-12-19T14:02:39.612Z,101208.20
2018-12-19T14:05:08.089Z,101206.20
2018-12-19T14:07:36.169Z,101205.30
2018-12-19T14:10:04.820Z,101204.12
2018-12-19T14:12:32.888Z,101202.02
2018-12-19T14:15:00.990Z,101199.30
2018-12-19T14:17:29.061Z,101190.74
2018-12-19T14:19:57.109Z,101195.38
2018-12-19T14:22:25.203Z,101190.09
2018-12-19T14:24:53.191Z,101189.56
2018-12-19T14:27:21.906Z,101197.36
2018-12-19T14:29:49.896Z,101186.30
2018-12-19T14:32:17.795Z,101186.37
2018-12-19T14:34:45.678Z,101184.89
2018-12-19T14:37:13.544Z,101188.23
2018-12-19T14:39:41.484Z,101191.19
2018-12-19T14:42:09.425Z,101184.72
2018-12-19T14:44:37.436Z,101190.66
2018-12-19T14:47:05.482Z,101201.81
2018-12-19T14:49:33.423Z,101194.08
2018-12-19T14:52:01.413Z,101196.38
2018-12-19T14:54:29.478Z,101198.67
2018-12-19T14:56:57.444Z,101193.55
2018-12-19T14:59:25.311Z,101193.67
2018-12-19T15:01:53.175Z,101189.18
2018-12-19T15:04:21.366Z,101189.96
2018-12-19T15:06:49.466Z,101192.50
2018-12-19T15:09:17.474Z,101199.32
2018-12-19T15:11:45.464Z,101198.22
2018-12-19T15:14:13.329Z,101200.98
2018-12-19T15:16:41.196Z,101197.70
2018-12-19T15:19:09.204Z,101201.08
2018-12-19T15:21:37.172Z,101198.45
2018-12-19T15:24:04.991Z,101201.45
2018-12-19T15:26:33.019Z,101201.45
2018-12-19T15:29:00.923Z,101208.58
2018-12-19T15:31:28.789Z,101201.62
2018-12-19T15:33:56.654Z,101200.67
2018-12-19T15:36:24.680Z,101197.13
2018-12-19T15:38:52.734Z,101193.80
2018-12-19T15:41:20.676Z,101199.45
2018-12-19T15:43:48.766Z,101194.98
2018-12-19T15:46:16.607Z,101196.38
2018-12-19T15:48:44.472Z,101191.49
2018-12-19T15:51:12.494Z,101185.81
2018-12-19T15:53:40.563Z,101184.89
2018-12-19T15:56:08.620Z,101184.44
2018-12-19T15:58:36.706Z,101189.63
2018-12-19T16:01:04.774Z,101182.08
2018-12-19T16:03:32.691Z,101184.55
2018-12-19T16:06:00.716Z,101182.37
2018-12-19T16:08:28.648Z,101183.98
2018-12-19T16:10:56.639Z,101184.66
2018-12-19T16:13:24.578Z,101182.67
2018-12-19T16:15:52.444Z,101182.63
2018-12-19T16:18:20.310Z,101176.37
2018-12-19T16:20:48.324Z,101182.37
2018-12-19T16:23:16.402Z,101177.88
2018-12-19T16:25:44.307Z,101182.73
2018-12-19T16:28:12.332Z,101181.95
2018-12-19T16:30:40.190Z,101172.77
2018-12-19T16:33:08.458Z,101174.22
2018-12-19T16:35:36.546Z,101167.44
2018-12-19T16:38:04.618Z,101168.70
2018-12-19T16:40:32.625Z,101166.77
2018-12-19T16:43:00.964Z,101166.94
2018-12-19T16:45:29.006Z,101161.62
2018-12-19T16:47:56.947Z,101161.62
2018-12-19T16:50:24.973Z,101161.09
2018-12-19T16:52:53.044Z,101155.80
2018-12-19T16:55:20.894Z,101159.28
2018-12-19T16:57:48.835Z,101157.91
2018-12-19T17:00:16.700Z,101159.99
2018-12-19T17:02:44.716Z,101159.03
2018-12-19T17:05:12.659Z,101160.64
2018-12-19T17:07:40.823Z,101159.73
2018-12-19T17:10:09.116Z,101165.13
2018-12-19T17:12:37.379Z,101162.34
2018-12-19T17:15:05.491Z,101159.70
2018-12-19T17:17:33.767Z,101159.93
2018-12-19T17:20:02.075Z,101163.22
2018-12-19T17:22:29.966Z,101159.93
2018-12-19T17:24:57.883Z,101138.99
2018-12-19T17:27:26.024Z,101146.80
2018-12-19T17:29:54.115Z,101141.70
2018-12-19T17:32:22.655Z,101144.53
2018-12-19T17:34:50.668Z,101145.20
2018-12-19T17:37:18.685Z,101142.84
2018-12-19T17:39:46.810Z,101133.00
2018-12-19T17:42:14.664Z,101130.70
2018-12-19T17:44:42.340Z,101133.00
2018-12-19T17:47:10.397Z,101135.11
2018-12-19T17:49:38.377Z,101130.74
2018-12-19T17:52:06.530Z,101127.58
2018-12-19T17:54:34.625Z,101128.22
2018-12-19T17:57:02.712Z,101125.39
2018-12-19T17:59:30.765Z,101127.05
2018-12-19T18:01:58.837Z,101128.33
2018-12-19T18:04:26.908Z,101133.64
2018-12-19T18:06:54.950Z,101134.70
2018-12-19T18:09:22.889Z,101129.80
2018-12-19T18:11:50.918Z,101135.71
2018-12-19T18:14:18.846Z,101142.35
2018-12-19T18:16:46.762Z,101141.18
2018-12-19T18:19:15.808Z,101141.70
2018-12-19T18:21:43.893Z,101137.94
2018-12-19T18:24:11.833Z,101142.42
2018-12-19T18:26:39.699Z,101119.90
2018-12-19T18:29:07.626Z,101139.37
2018-12-19T18:31:35.591Z,101141.30
2018-12-19T18:34:03.968Z,101145.89
2018-12-19T18:36:31.787Z,101141.18
2018-12-19T18:39:00.201Z,101133.57
2018-12-19T18:41:28.146Z,101132.94
2018-12-19T18:43:56.010Z,101133.99
2018-12-19T18:46:23.875Z,101136.52
2018-12-19T18:48:51.740Z,101133.16
2018-12-19T18:51:19.605Z,101140.73
2018-12-19T18:53:47.472Z,101130.67
2018-12-19T18:56:15.486Z,101133.69
2018-12-19T18:58:43.453Z,101132.00
2018-12-19T19:01:11.430Z,101131.09
2018-12-19T19:03:39.849Z,101145.97
2018-12-19T19:06:07.852Z,101152.86
2018-12-19T19:08:35.944Z,101145.48
2018-12-19T19:11:03.933Z,101148.67
2018-12-19T19:13:32.575Z,101151.28
2018-12-19T19:16:00.414Z,101149.09
2018-12-19T19:18:28.505Z,101142.31
2018-12-19T19:20:56.371Z,101139.64
2018-12-19T19:23:24.236Z,101138.88
2018-12-19T19:25:52.076Z,101136.81
2018-12-19T19:28:20.242Z,101137.95
2018-12-19T19:30:48.486Z,101137.46
2018-12-19T19:33:16.664Z,101135.28
2018-12-19T19:35:44.728Z,101132.45
2018-12-19T19:38:12.799Z,101122.69
2018-12-19T19:40:40.846Z,101134.70
2018-12-19T19:43:09.147Z,101133.88
2018-12-19T19:45:37.077Z,101135.58
2018-12-19T19:48:05.085Z,101136.09
2018-12-19T19:50:33.084Z,101138.00
2018-12-19T19:53:01.230Z,101126.21
2018-12-19T19:55:29.195Z,101124.96
2018-12-19T19:57:57.006Z,101129.91
2018-12-19T20:00:29.336Z,101125.50
2018-12-19T20:02:57.313Z,101118.66
2018-12-19T20:05:25.254Z,101120.27
2018-12-19T20:07:53.342Z,101124.04
2018-12-19T20:10:21.386Z,101113.72
2018-12-19T20:12:49.501Z,101112.17
2018-12-19T20:15:17.415Z,101112.89
2018-12-19T20:17:45.282Z,101118.02
2018-12-19T20:20:13.146Z,101109.13
2018-12-19T20:22:41.038Z,101119.44
2018-12-19T20:25:09.020Z,101116.84
2018-12-19T20:27:38.320Z,101123.45
2018-12-19T20:30:08.536Z,101121.14
2018-12-19T20:32:36.475Z,101122.80
2018-12-19T20:35:04.874Z,101120.12
2018-12-19T20:37:32.732Z,101122.27
2018-12-19T20:40:00.872Z,101124.69
2018-12-19T20:42:29.001Z,101135.19
2018-12-19T20:44:56.938Z,101135.71
2018-12-19T20:47:24.793Z,101137.23
2018-12-19T20:49:52.986Z,101136.55
2018-12-19T20:52:21.081Z,101142.61
2018-12-19T20:54:49.090Z,101139.11
2018-12-19T20:57:17.005Z,101132.40
2018-12-19T20:59:45.196Z,101136.65
2018-12-19T21:02:13.342Z,101139.36
2018-12-19T21:04:41.952Z,101140.61
2018-12-19T21:07:09.669Z,101144.25
2018-12-19T21:09:37.741Z,101142.59
2018-12-19T21:12:05.960Z,101140.61
2018-12-19T21:14:34.016Z,101139.93
2018-12-19T21:17:07.606Z,101142.94
2018-12-19T21:19:35.702Z,101136.23
2018-12-19T21:22:03.412Z,101139.36
2018-12-19T21:24:31.278Z,101143.77
2018-12-19T21:26:59.301Z,101139.93
2018-12-19T21:29:27.234Z,101138.42
2018-12-19T21:31:55.101Z,101137.06
2018-12-19T21:34:23.170Z,101133.83
2018-12-19T21:36:51.032Z,101133.34
2018-12-19T21:39:19.225Z,101137.59
2018-12-19T21:41:47.242Z,101134.05
2018-12-19T21:44:15.390Z,101135.64
2018-12-19T21:46:43.320Z,101135.71
2018-12-19T21:49:11.239Z,101136.47
2018-12-19T21:51:39.376Z,101134.47
2018-12-19T21:54:07.641Z,101136.36
2018-12-19T21:56:35.622Z,101139.94
2018-12-19T21:59:03.897Z,101136.09
2018-12-19T22:01:32.122Z,101136.78
2018-12-19T22:04:00.208Z,101132.22
2018-12-19T22:06:28.147Z,101130.83
2018-12-19T22:08:56.166Z,101128.64
2018-12-19T22:11:24.239Z,101131.23
2018-12-19T22:13:52.099Z,101137.88
2018-12-19T22:16:25.835Z,101137.12
2018-12-19T22:18:54.042Z,101129.73
2018-12-19T22:21:22.244Z,101141.37
2018-12-19T22:23:50.554Z,101139.23
2018-12-19T22:26:18.623Z,101135.05
2018-12-19T22:28:46.860Z,101130.94
2018-12-19T22:31:15.196Z,101131.47
2018-12-19T22:33:43.299Z,101125.52
2018-12-19T22:36:11.459Z,101125.73
2018-12-19T22:38:39.512Z,101119.68
2018-12-19T22:41:08.440Z,101116.20
2018-12-19T22:43:36.665Z,101124.20
2018-12-19T22:46:04.598Z,101121.03
2018-12-19T22:48:32.460Z,101124.50
2018-12-19T22:51:00.459Z,101124.50
2018-12-19T22:53:28.540Z,101116.82
2018-12-19T22:55:56.536Z,101115.66
2018-12-19T22:58:24.697Z,101109.09
2018-12-19T23:00:58.588Z,101106.34
2018-12-19T23:06:29.666Z,101105.11
2018-12-19T23:08:57.742Z,101103.86
2018-12-19T23:11:25.649Z,101105.70
2018-12-19T23:13:53.514Z,101107.06
2018-12-19T23:16:21.505Z,101107.41
2018-12-19T23:18:49.473Z,101111.28
2018-12-19T23:21:17.484Z,101116.70
2018-12-19T23:23:45.615Z,101117.65
2018-12-19T23:26:13.816Z,101119.61
2018-12-19T23:28:41.988Z,101123.60
2018-12-19T23:31:11.063Z,101114.22
2018-12-19T23:33:39.142Z,101122.80
2018-12-19T23:36:06.982Z,101117.08
2018-12-19T23:38:35.003Z,101116.30
2018-12-19T23:41:03.084Z,101120.13
2018-12-19T23:43:31.025Z,101113.69
2018-12-19T23:45:58.865Z,101107.10
2018-12-19T23:48:26.794Z,101101.34
2018-12-19T23:50:54.929Z,101104.92
2018-12-19T23:53:22.888Z,101102.77
2018-12-19T23:55:50.920Z,101104.05
2018-12-19T23:58:19.150Z,101101.11
